Time;durP1;ratioP1;P1;durP2;ratioP2;P2;SDS_P1;SDS_P2;PMS_P1;PMS_P2;Temp;Humidity;BMP_temperature;BMP_pressure;BME280_temperature;BME280_humidity;BME280_pressure;Samples;Min_cycle;Max_cycle;Signal;HPM_P1;HPM_P2
2022/01/24 00:01:16;;;;;;;4.15;3.65;;;5.80;99.90;;;;;;5068824;28;20041;-78
2022/01/24 00:03:42;;;;;;;5.57;4.15;;;5.70;99.90;;;;;;5052939;28;20477;-78
2022/01/24 00:06:11;;;;;;;3.88;3.47;;;5.80;99.90;;;;;;5069668;28;20039;-77
2022/01/24 00:08:37;;;;;;;5.45;3.67;;;5.70;99.90;;;;;;5051709;28;20512;-78
2022/01/24 00:11:08;;;;;;;4.03;3.58;;;5.80;99.90;;;;;;5069301;28;20041;-80
2022/01/24 00:16:57;;;;;;;4.38;3.55;;;5.70;99.90;;;;;;5071123;28;20396;-79
2022/01/24 00:27:11;;;;;;;5.60;4.53;;;5.80;99.90;;;;;;5060591;28;20048;-83
2022/01/24 00:29:37;;;;;;;5.90;4.63;;;5.70;99.90;;;;;;5056258;28;20485;-81
2022/01/24 00:32:03;;;;;;;5.47;4.97;;;5.70;99.90;;;;;;5051102;28;20040;-82
2022/01/24 00:34:29;;;;;;;6.32;5.05;;;5.70;99.90;;;;;;5037562;28;20045;-75
2022/01/24 00:36:55;;;;;;;7.18;5.20;;;5.70;99.90;;;;;;5065332;28;20083;-78
2022/01/24 00:39:22;;;;;;;6.38;5.03;;;5.70;99.90;;;;;;5055781;28;20078;-81
2022/01/24 00:42:30;;;;;;;8.30;5.95;;;5.80;99.90;;;;;;5072646;28;20048;-80
2022/01/24 00:44:50;;;;;;;6.55;5.65;;;5.70;99.80;;;;;;5066209;28;20061;-79
2022/01/24 00:47:22;;;;;;;7.40;6.55;;;5.70;99.90;;;;;;5074191;28;20393;-78
2022/01/24 00:55:16;;;;;;;11.43;7.57;;;5.80;99.80;;;;;;5076251;28;20040;-78
2022/01/24 00:57:42;;;;;;;12.02;8.32;;;5.70;99.70;;;;;;5058789;28;20446;-78
2022/01/24 01:00:08;;;;;;;10.13;8.68;;;5.70;99.70;;;;;;5052539;28;20037;-78
2022/01/24 01:02:34;;;;;;;9.63;8.35;;;5.70;99.70;;;;;;5072522;28;20127;-79
2022/01/24 01:05:08;;;;;;;12.10;8.70;;;5.70;99.60;;;;;;5048287;28;20115;-78
2022/01/24 01:18:38;;;;;;;15.10;10.48;;;5.70;99.80;;;;;;5076950;28;20048;-81
2022/01/24 01:21:16;;;;;;;12.95;10.68;;;5.70;99.70;;;;;;5065292;28;20597;-81
2022/01/24 01:23:51;;;;;;;13.07;11.30;;;5.70;99.80;;;;;;5075532;28;20126;-81
2022/01/24 01:28:54;;;;;;;12.80;10.93;;;5.70;99.70;;;;;;5074446;28;20545;-80
2022/01/24 01:55:43;;;;;;;15.23;11.98;;;5.60;99.90;;;;;;5071149;28;20052;-73
2022/01/24 01:58:11;;;;;;;16.38;12.98;;;5.60;99.90;;;;;;5071405;28;20119;-77
2022/01/24 02:00:41;;;;;;;14.25;12.00;;;5.60;99.90;;;;;;5070838;28;20040;-78
2022/01/24 02:03:07;;;;;;;16.05;11.93;;;5.60;99.90;;;;;;5071162;28;20053;-78
2022/01/24 02:05:33;;;;;;;14.85;11.90;;;5.60;99.90;;;;;;5070914;28;20078;-78
2022/01/24 02:07:59;;;;;;;14.65;11.93;;;5.60;99.90;;;;;;5070655;28;20103;-76
2022/01/24 02:10:25;;;;;;;15.60;12.45;;;5.60;99.90;;;;;;5070812;28;20623;-76
2022/01/24 02:12:54;;;;;;;18.00;13.02;;;5.60;99.90;;;;;;5070670;28;20040;-76
2022/01/24 02:15:28;;;;;;;14.05;12.10;;;5.60;99.90;;;;;;5055915;28;20174;-78
2022/01/24 02:21:12;;;;;;;14.15;11.05;;;5.60;99.90;;;;;;5024949;28;20053;-76
2022/01/24 02:23:45;;;;;;;15.30;11.90;;;5.60;99.90;;;;;;5051813;28;20134;-78
2022/01/24 02:26:17;;;;;;;15.32;12.45;;;5.50;99.90;;;;;;5034789;28;20044;-79
2022/01/24 02:33:46;;;;;;;12.98;11.48;;;5.50;99.90;;;;;;5070288;28;20472;-81
2022/01/24 02:36:18;;;;;;;14.32;11.40;;;5.50;99.90;;;;;;5070223;28;20049;-81
2022/01/24 02:49:48;;;;;;;12.65;10.50;;;5.60;99.90;;;;;;5070078;28;20048;-79
2022/01/24 02:52:14;;;;;;;12.38;10.15;;;5.50;99.90;;;;;;5052440;28;20109;-77
2022/01/24 02:54:41;;;;;;;11.00;9.77;;;5.50;99.90;;;;;;5073654;28;20056;-85
2022/01/24 02:57:09;;;;;;;12.40;9.02;;;5.50;99.90;;;;;;5072920;28;20126;-78
2022/01/24 02:59:35;;;;;;;11.30;8.98;;;5.50;99.90;;;;;;5074500;28;20091;-77
2022/01/24 03:02:01;;;;;;;11.48;8.88;;;5.50;99.90;;;;;;5053599;28;20048;-74
2022/01/24 03:04:27;;;;;;;10.52;9.43;;;5.50;99.80;;;;;;5056736;28;20093;-78
2022/01/24 03:06:53;;;;;;;10.00;8.57;;;5.60;99.80;;;;;;5073206;28;20040;-78
2022/01/24 03:09:22;;;;;;;11.75;8.38;;;5.50;99.70;;;;;;5056851;28;20446;-78
2022/01/24 03:14:25;;;;;;;11.00;9.23;;;5.50;99.50;;;;;;5073416;28;20488;-78
2022/01/24 03:16:51;;;;;;;10.57;8.75;;;5.60;99.60;;;;;;5073165;28;20054;-79
2022/01/24 03:19:17;;;;;;;10.10;8.35;;;5.50;99.50;;;;;;5072285;28;20028;-75
2022/01/24 03:21:43;;;;;;;12.95;8.88;;;5.50;99.60;;;;;;5054943;28;20090;-80
2022/01/24 03:24:12;;;;;;;11.40;8.85;;;5.50;99.60;;;;;;5073401;28;20032;-78
2022/01/24 03:26:39;;;;;;;8.75;7.38;;;5.50;99.70;;;;;;5048146;28;20121;-81
2022/01/24 03:29:05;;;;;;;9.07;7.30;;;5.50;99.70;;;;;;5073352;28;20135;-80
2022/01/24 03:31:43;;;;;;;8.82;7.93;;;5.50;99.70;;;;;;5073173;28;20154;-81
2022/01/24 03:34:09;;;;;;;8.18;7.38;;;5.50;99.70;;;;;;5055168;28;20468;-78
2022/01/24 03:36:34;;;;;;;10.48;7.97;;;5.50;99.60;;;;;;5053229;28;20136;-77
2022/01/24 03:39:00;;;;;;;9.65;8.18;;;5.50;99.60;;;;;;5072203;28;20097;-78
2022/01/24 03:41:26;;;;;;;9.20;8.10;;;5.50;99.80;;;;;;5056427;28;20373;-78
2022/01/24 03:43:52;;;;;;;9.50;8.40;;;5.50;99.90;;;;;;5056287;28;20492;-81
2022/01/24 03:48:53;;;;;;;11.88;7.53;;;5.50;99.90;;;;;;5072551;28;20400;-81
2022/01/24 03:51:20;;;;;;;9.10;8.20;;;5.50;99.90;;;;;;5056341;28;20438;-81
2022/01/24 03:53:47;;;;;;;8.95;8.05;;;5.50;99.90;;;;;;5055010;28;20093;-81
2022/01/24 03:56:13;;;;;;;9.32;8.25;;;5.50;99.90;;;;;;5056689;28;20105;-81
2022/01/24 03:58:40;;;;;;;9.95;8.32;;;5.50;99.90;;;;;;5068576;28;20044;-81
2022/01/24 04:01:08;;;;;;;10.38;8.23;;;5.60;99.90;;;;;;5071809;28;20028;-82
2022/01/24 04:03:35;;;;;;;10.48;8.50;;;5.50;99.90;;;;;;5072972;28;20416;-81
2022/01/24 04:06:00;;;;;;;9.43;8.45;;;5.50;99.90;;;;;;5072523;28;20043;-81
2022/01/24 04:08:26;;;;;;;9.05;7.82;;;5.50;99.90;;;;;;5071807;28;20055;-80
2022/01/24 04:10:56;;;;;;;9.45;8.45;;;5.40;99.90;;;;;;5050537;28;20481;-82
2022/01/24 04:18:40;;;;;;;9.13;8.23;;;5.40;99.90;;;;;;5072615;28;20044;-78
2022/01/24 04:21:22;;;;;;;9.55;7.78;;;5.40;99.90;;;;;;5055227;28;20048;-78
2022/01/24 04:24:01;;;;;;;9.93;7.93;;;5.40;99.90;;;;;;5072135;28;20047;-78
2022/01/24 04:26:27;;;;;;;9.93;7.97;;;5.40;99.90;;;;;;5072469;28;20052;-78
2022/01/24 04:28:53;;;;;;;10.10;8.27;;;5.40;99.90;;;;;;5072048;28;20044;-77
2022/01/24 04:31:19;;;;;;;10.95;8.38;;;5.40;99.90;;;;;;5072742;28;20381;-76
2022/01/24 04:33:45;;;;;;;10.05;8.98;;;5.40;99.90;;;;;;5072141;28;20054;-77
2022/01/24 04:36:11;;;;;;;10.45;8.45;;;5.40;99.90;;;;;;5071774;28;20494;-79
2022/01/24 04:38:37;;;;;;;10.07;8.25;;;5.40;99.90;;;;;;5072179;28;20086;-80
2022/01/24 04:41:07;;;;;;;10.68;8.55;;;5.40;99.90;;;;;;5072264;28;20048;-84
2022/01/24 04:52:07;;;;;;;12.25;8.80;;;5.40;99.90;;;;;;5072053;28;20056;-81
2022/01/24 04:54:42;;;;;;;10.13;8.00;;;5.40;99.90;;;;;;5072391;28;20161;-81
2022/01/24 04:57:13;;;;;;;11.23;9.23;;;5.40;99.90;;;;;;5072019;28;20044;-81
2022/01/24 04:59:40;;;;;;;10.32;8.55;;;5.30;99.90;;;;;;5055254;28;20036;-81
2022/01/24 05:02:06;;;;;;;11.27;9.55;;;5.40;99.90;;;;;;5036564;28;20045;-82
2022/01/24 05:04:32;;;;;;;10.65;9.02;;;5.40;99.90;;;;;;5068109;28;20075;-82
2022/01/24 05:06:58;;;;;;;10.57;8.90;;;5.40;99.90;;;;;;5075219;28;20083;-81
2022/01/24 05:09:25;;;;;;;12.02;9.70;;;5.30;99.90;;;;;;5059222;28;20043;-80
2022/01/24 05:25:39;;;;;;;12.57;8.60;;;5.40;99.90;;;;;;5074411;28;20040;-80
2022/01/24 05:28:04;;;;;;;10.38;8.55;;;5.30;99.90;;;;;;5059010;28;20499;-78
2022/01/24 05:30:30;;;;;;;14.20;9.77;;;5.30;99.90;;;;;;5058434;28;20400;-78
2022/01/24 05:32:56;;;;;;;11.25;9.35;;;5.30;99.90;;;;;;5058297;28;20511;-77
2022/01/24 05:35:22;;;;;;;10.50;9.38;;;5.30;99.90;;;;;;5058317;28;20044;-79
2022/01/24 05:37:47;;;;;;;11.25;8.80;;;5.30;99.90;;;;;;5075383;28;20040;-78
2022/01/24 05:40:14;;;;;;;11.95;10.13;;;5.30;99.90;;;;;;5057953;28;20102;-79
2022/01/24 05:42:39;;;;;;;12.32;10.30;;;5.30;99.90;;;;;;5055304;28;20044;-78
2022/01/24 05:45:06;;;;;;;12.43;10.20;;;5.30;99.90;;;;;;5073325;28;20117;-78
2022/01/24 05:47:32;;;;;;;13.25;9.50;;;5.30;99.90;;;;;;5057809;28;20056;-78
2022/01/24 05:49:57;;;;;;;11.32;9.80;;;5.30;99.90;;;;;;5057656;28;20046;-83
2022/01/24 05:52:24;;;;;;;12.02;9.85;;;5.30;99.90;;;;;;5058036;28;20365;-81
2022/01/24 05:55:47;;;;;;;12.05;9.75;;;5.30;99.90;;;;;;5074641;28;20181;-84
2022/01/24 06:15:06;;;;;;;12.82;10.35;;;5.30;99.90;;;;;;4942026;28;20035;-85
2022/01/24 06:29:11;;;;;;;11.85;9.77;;;5.30;99.90;;;;;;4934294;29;20466;-84
2022/01/24 06:31:37;;;;;;;13.25;10.27;;;5.30;99.90;;;;;;4951148;28;20094;-77
2022/01/24 06:34:03;;;;;;;13.52;10.45;;;5.30;99.90;;;;;;5026938;28;20045;-81
2022/01/24 06:36:29;;;;;;;13.93;11.00;;;5.30;99.90;;;;;;5032807;28;20489;-80
2022/01/24 06:38:55;;;;;;;14.13;10.55;;;5.30;99.90;;;;;;5006241;28;20095;-78
2022/01/24 06:41:31;;;;;;;16.02;12.00;;;5.20;99.90;;;;;;5018593;28;20126;-80
2022/01/24 06:43:57;;;;;;;16.98;13.27;;;5.30;99.90;;;;;;5032948;28;20084;-81
2022/01/24 06:46:23;;;;;;;16.42;12.57;;;5.30;99.90;;;;;;5015311;28;20056;-83
2022/01/24 06:48:48;;;;;;;16.20;12.63;;;5.20;99.90;;;;;;5012231;28;20107;-80
2022/01/24 06:51:14;;;;;;;16.55;13.23;;;5.20;99.90;;;;;;5016712;28;20508;-74
2022/01/24 06:53:41;;;;;;;17.27;14.02;;;5.20;99.90;;;;;;5016409;28;20045;-76
2022/01/24 06:56:07;;;;;;;18.77;15.15;;;5.20;99.90;;;;;;5031802;28;20057;-75
2022/01/24 06:58:34;;;;;;;18.00;14.00;;;5.20;99.90;;;;;;5033003;28;20115;-76
2022/01/24 07:01:00;;;;;;;19.67;15.10;;;5.30;99.90;;;;;;5052839;28;20059;-76
2022/01/24 07:03:26;;;;;;;23.08;17.00;;;5.20;99.90;;;;;;5073233;28;20052;-77
2022/01/24 07:05:52;;;;;;;22.67;15.88;;;5.30;99.90;;;;;;5073561;28;20115;-76
2022/01/24 07:08:18;;;;;;;15.68;12.77;;;5.20;99.90;;;;;;5073212;28;20196;-72
2022/01/24 07:10:44;;;;;;;17.60;12.80;;;5.20;99.90;;;;;;5072585;28;20048;-77
2022/01/24 07:13:09;;;;;;;12.85;11.07;;;5.30;99.90;;;;;;5073675;28;20551;-79
2022/01/24 07:15:44;;;;;;;15.70;11.82;;;5.30;99.90;;;;;;5072783;28;20062;-78
2022/01/24 07:20:59;;;;;;;17.85;12.65;;;5.30;99.90;;;;;;5067341;28;20044;-79
2022/01/24 07:23:25;;;;;;;19.27;13.53;;;5.30;99.90;;;;;;5073103;28;20051;-84
2022/01/24 07:25:51;;;;;;;21.85;16.50;;;5.20;99.90;;;;;;5055412;28;20642;-81
2022/01/24 07:28:17;;;;;;;24.55;18.77;;;5.20;99.90;;;;;;5071257;28;20052;-82
2022/01/24 07:30:44;;;;;;;22.35;16.80;;;5.20;99.90;;;;;;5068078;28;20132;-81
2022/01/24 07:33:10;;;;;;;27.67;19.15;;;5.20;99.90;;;;;;5072976;28;20104;-79
2022/01/24 07:35:36;;;;;;;27.92;18.40;;;5.20;99.90;;;;;;5073187;28;20072;-81
2022/01/24 07:38:03;;;;;;;34.05;24.50;;;5.30;99.90;;;;;;5071489;28;20078;-80
2022/01/24 07:40:29;;;;;;;36.17;24.95;;;5.30;99.90;;;;;;5078219;28;20055;-81
2022/01/24 07:45:25;;;;;;;37.13;25.63;;;5.30;99.90;;;;;;5071951;28;20057;-81
2022/01/24 07:47:51;;;;;;;33.13;25.27;;;5.30;99.90;;;;;;5072585;28;20044;-82
2022/01/24 07:50:19;;;;;;;39.38;27.40;;;5.30;99.90;;;;;;5071774;28;20044;-82
2022/01/24 07:52:45;;;;;;;34.90;26.60;;;5.30;99.90;;;;;;5072291;28;20079;-71
2022/01/24 07:55:11;;;;;;;35.88;26.92;;;5.40;99.90;;;;;;5055581;28;20433;-82
2022/01/24 07:57:37;;;;;;;37.25;26.85;;;5.30;99.90;;;;;;5056615;28;20044;-75
2022/01/24 08:00:05;;;;;;;39.47;28.42;;;5.30;99.90;;;;;;5072016;28;20048;-82
2022/01/24 08:02:30;;;;;;;42.42;29.15;;;5.40;99.90;;;;;;5072907;28;20051;-82
2022/01/24 08:04:56;;;;;;;38.47;28.95;;;5.30;99.90;;;;;;5072555;28;20040;-83
2022/01/24 08:07:22;;;;;;;38.35;29.13;;;5.40;99.90;;;;;;5072284;28;20087;-82
2022/01/24 08:09:47;;;;;;;44.88;32.53;;;5.40;99.90;;;;;;5056033;28;20059;-84
2022/01/24 08:12:13;;;;;;;40.55;31.05;;;5.40;99.90;;;;;;5072521;28;20032;-83
2022/01/24 08:14:38;;;;;;;43.40;31.58;;;5.30;99.90;;;;;;5056557;28;20127;-73
2022/01/24 08:17:04;;;;;;;45.40;33.25;;;5.40;99.90;;;;;;5052679;28;20053;-74
2022/01/24 08:19:32;;;;;;;45.05;33.85;;;5.40;99.90;;;;;;5072579;28;20089;-83
2022/01/24 08:21:58;;;;;;;45.72;33.83;;;5.40;99.90;;;;;;5071693;28;20062;-82
2022/01/24 08:24:24;;;;;;;43.88;34.67;;;5.40;99.90;;;;;;5073102;28;20044;-82
2022/01/24 08:26:49;;;;;;;41.15;33.20;;;5.40;99.90;;;;;;5071750;28;20040;-82
2022/01/24 08:29:15;;;;;;;47.20;35.28;;;5.40;99.90;;;;;;5072319;28;20036;-81
2022/01/24 08:31:41;;;;;;;47.88;36.17;;;5.40;99.90;;;;;;5072573;28;20043;-82
2022/01/24 08:34:06;;;;;;;49.03;36.92;;;5.50;99.90;;;;;;5072379;28;20488;-82
2022/01/24 08:36:33;;;;;;;43.08;33.83;;;5.50;99.90;;;;;;5061537;28;20098;-82
2022/01/24 08:39:06;;;;;;;46.90;36.20;;;5.50;99.90;;;;;;5056490;28;20512;-82
2022/01/24 08:41:42;;;;;;;44.25;34.00;;;5.50;99.90;;;;;;5065936;28;20106;-82
2022/01/24 08:44:33;;;;;;;48.70;36.15;;;5.50;99.90;;;;;;5075911;28;20040;-81
2022/01/24 08:46:59;;;;;;;43.85;35.17;;;5.50;99.90;;;;;;5084007;28;20052;-82
2022/01/24 08:49:25;;;;;;;47.00;34.95;;;5.60;99.90;;;;;;5075358;28;20055;-83
2022/01/24 08:51:50;;;;;;;42.70;35.08;;;5.50;99.90;;;;;;5074516;28;20051;-82
2022/01/24 08:54:16;;;;;;;46.45;36.78;;;5.60;99.90;;;;;;5059401;28;20050;-85
2022/01/24 08:56:42;;;;;;;49.03;35.85;;;5.60;99.90;;;;;;5075534;28;20040;-84
2022/01/24 08:59:08;;;;;;;45.83;35.92;;;5.60;99.90;;;;;;5076881;28;20079;-84
2022/01/24 09:01:34;;;;;;;46.47;35.15;;;5.50;99.90;;;;;;5076120;28;20089;-84
2022/01/24 09:03:59;;;;;;;45.28;34.75;;;5.60;99.90;;;;;;5075374;28;20408;-83
2022/01/24 09:06:25;;;;;;;42.38;32.08;;;5.60;99.90;;;;;;5076167;28;20083;-83
2022/01/24 09:08:55;;;;;;;42.00;33.15;;;5.60;99.70;;;;;;5076029;28;20075;-83
2022/01/24 09:11:29;;;;;;;44.67;33.20;;;5.60;99.60;;;;;;5075572;28;20044;-83
2022/01/24 09:13:58;;;;;;;42.03;33.08;;;5.60;99.50;;;;;;5075704;28;20044;-83
2022/01/24 09:16:24;;;;;;;44.67;34.60;;;5.70;99.30;;;;;;5075040;28;20040;-83
2022/01/24 09:18:50;;;;;;;43.15;32.65;;;5.70;99.30;;;;;;5076008;28;20047;-83
2022/01/24 09:21:16;;;;;;;44.05;34.47;;;5.70;99.10;;;;;;5075793;28;20078;-83
2022/01/24 09:23:41;;;;;;;47.38;35.42;;;5.70;99.20;;;;;;5075058;28;20078;-83
2022/01/24 09:26:07;;;;;;;45.42;34.17;;;5.70;99.10;;;;;;5076045;28;20036;-83
2022/01/24 09:28:32;;;;;;;42.35;33.70;;;5.80;99.10;;;;;;5075500;28;20044;-83
2022/01/24 09:30:58;;;;;;;40.13;31.63;;;5.70;99.00;;;;;;5075357;28;20404;-83
2022/01/24 09:33:25;;;;;;;44.30;33.33;;;5.80;98.40;;;;;;5059093;28;20047;-73
2022/01/24 09:35:52;;;;;;;42.80;33.42;;;5.80;98.40;;;;;;5075735;28;20197;-83
2022/01/24 09:38:20;;;;;;;45.35;32.58;;;5.80;98.40;;;;;;5074781;28;20044;-83
2022/01/24 09:40:46;;;;;;;41.38;31.75;;;5.80;98.60;;;;;;5075141;28;20439;-83
2022/01/24 09:43:12;;;;;;;39.65;30.80;;;5.80;98.30;;;;;;5075455;28;20141;-84
2022/01/24 09:45:38;;;;;;;40.17;30.75;;;5.80;98.10;;;;;;5056209;28;20459;-72
2022/01/24 09:48:04;;;;;;;38.92;31.65;;;5.80;98.10;;;;;;5034671;28;20120;-78
2022/01/24 09:50:30;;;;;;;40.55;30.88;;;5.80;98.00;;;;;;5052088;28;20395;-83
2022/01/24 09:52:56;;;;;;;41.03;31.23;;;5.80;97.80;;;;;;5051407;28;20092;-83
2022/01/24 09:55:23;;;;;;;37.72;30.15;;;5.80;97.70;;;;;;5051829;28;20047;-83
2022/01/24 09:57:50;;;;;;;37.75;28.98;;;5.90;97.60;;;;;;5051737;28;20051;-72
2022/01/24 10:00:19;;;;;;;36.78;30.27;;;5.90;97.50;;;;;;5051128;28;20044;-83
2022/01/24 10:02:46;;;;;;;39.25;28.88;;;5.90;97.30;;;;;;5051484;28;20489;-81
2022/01/24 10:05:17;;;;;;;39.35;32.17;;;5.90;97.40;;;;;;5051532;28;20076;-83
2022/01/24 10:07:50;;;;;;;41.95;32.28;;;5.90;97.30;;;;;;5034504;28;20045;-83
2022/01/24 10:10:24;;;;;;;43.10;32.95;;;5.90;97.30;;;;;;5069970;28;20045;-81
2022/01/24 10:18:01;;;;;;;44.42;34.35;;;5.90;97.40;;;;;;5069469;28;20048;-84
2022/01/24 10:20:31;;;;;;;43.50;31.88;;;6.00;97.40;;;;;;5055711;28;20049;-72
2022/01/24 10:23:00;;;;;;;43.20;33.30;;;6.00;97.50;;;;;;5034708;28;20473;-72
2022/01/24 10:25:26;;;;;;;36.53;28.95;;;6.00;97.30;;;;;;5049054;28;20461;-81
2022/01/24 10:28:03;;;;;;;38.00;30.23;;;5.90;96.80;;;;;;5071030;28;20127;-81
2022/01/24 10:30:30;;;;;;;41.72;31.20;;;6.00;96.80;;;;;;5070670;28;20557;-71
2022/01/24 10:32:56;;;;;;;43.33;33.92;;;6.00;97.10;;;;;;5070569;28;20052;-81
2022/01/24 10:35:23;;;;;;;42.42;34.67;;;6.00;96.70;;;;;;5070672;28;20087;-82
2022/01/24 10:37:53;;;;;;;43.05;33.83;;;6.00;96.90;;;;;;5070791;28;20119;-73
2022/01/24 10:40:44;;;;;;;43.20;34.00;;;6.00;97.00;;;;;;5053007;28;20123;-80
2022/01/24 10:43:21;;;;;;;44.83;34.13;;;5.90;96.50;;;;;;5053916;28;20052;-80
2022/01/24 10:45:48;;;;;;;40.85;31.98;;;6.00;96.90;;;;;;5069764;28;20041;-80
2022/01/24 10:48:19;;;;;;;41.33;31.77;;;6.00;96.80;;;;;;5053791;28;20508;-79
2022/01/24 10:50:44;;;;;;;42.55;32.08;;;6.00;96.80;;;;;;5054192;28;20044;-78
2022/01/24 10:53:14;;;;;;;40.42;33.03;;;6.00;97.00;;;;;;5069862;28;20451;-76
2022/01/24 10:55:41;;;;;;;33.97;28.38;;;6.00;96.80;;;;;;5085840;28;20044;-80
2022/01/24 10:58:14;;;;;;;31.15;25.90;;;6.00;96.70;;;;;;5071005;28;20401;-79
2022/01/24 11:00:41;;;;;;;34.15;26.83;;;6.00;96.40;;;;;;5049305;28;20485;-80
2022/01/24 11:03:14;;;;;;;33.00;27.13;;;6.00;96.40;;;;;;5050703;28;20044;-79
2022/01/24 11:05:41;;;;;;;29.40;24.58;;;6.00;96.30;;;;;;5069068;28;20040;-79
2022/01/24 11:08:16;;;;;;;30.88;25.95;;;6.00;96.40;;;;;;5069920;28;20059;-79
2022/01/24 11:10:47;;;;;;;29.10;25.73;;;6.00;96.40;;;;;;5070127;28;20071;-80
2022/01/24 11:13:18;;;;;;;29.23;24.52;;;6.00;96.30;;;;;;5053867;28;20485;-80
2022/01/24 11:15:48;;;;;;;27.00;24.10;;;6.00;96.20;;;;;;5069271;28;20444;-80
2022/01/24 11:18:15;;;;;;;26.25;23.40;;;6.00;96.20;;;;;;5070138;28;20060;-80
2022/01/24 11:20:45;;;;;;;29.58;23.88;;;6.00;96.20;;;;;;5069872;28;20051;-80
2022/01/24 11:23:11;;;;;;;25.80;22.98;;;6.00;96.20;;;;;;5069519;28;20055;-74
2022/01/24 11:25:47;;;;;;;26.90;24.02;;;6.10;96.40;;;;;;5068729;28;20045;-80
2022/01/24 11:28:13;;;;;;;25.98;23.17;;;6.10;96.40;;;;;;5086321;28;20060;-80
2022/01/24 11:30:55;;;;;;;26.67;23.88;;;6.10;96.10;;;;;;5069633;28;20040;-80
2022/01/24 11:33:36;;;;;;;26.10;23.38;;;6.00;95.90;;;;;;5069981;28;20052;-80
2022/01/24 11:36:04;;;;;;;24.27;21.70;;;6.00;95.90;;;;;;5068489;28;20047;-80
2022/01/24 11:38:33;;;;;;;26.10;23.25;;;6.10;95.70;;;;;;5053041;28;20505;-78
2022/01/24 11:41:13;;;;;;;25.15;22.10;;;6.00;95.80;;;;;;5052580;28;20052;-80
2022/01/24 11:43:46;;;;;;;24.60;21.95;;;6.10;95.50;;;;;;5069355;28;20127;-80
2022/01/24 11:46:30;;;;;;;;;;;6.00;95.40;;;;;;5069892;28;20051;-74
2022/01/24 11:49:05;;;;;;;25.85;22.45;;;6.00;95.10;;;;;;5069590;28;19972;-79
2022/01/24 11:51:32;;;;;;;26.30;22.85;;;6.00;95.50;;;;;;5086095;28;20048;-80
2022/01/24 11:53:58;;;;;;;25.23;22.52;;;6.00;95.40;;;;;;5069865;28;20044;-80
2022/01/24 11:56:26;;;;;;;25.25;22.65;;;6.00;95.30;;;;;;5068874;28;20082;-82
2022/01/24 11:59:17;;;;;;;25.52;22.83;;;6.00;95.20;;;;;;5069772;28;20040;-79
2022/01/24 12:01:45;;;;;;;25.08;22.42;;;6.00;95.10;;;;;;5069641;28;20484;-80
2022/01/24 12:04:11;;;;;;;24.85;22.05;;;6.00;95.20;;;;;;5069313;28;20066;-80
2022/01/24 12:07:16;;;;;;;25.65;22.90;;;6.10;95.20;;;;;;5069156;28;20556;-80
2022/01/24 12:09:41;;;;;;;26.75;24.00;;;6.10;95.10;;;;;;5057569;28;20056;-80
2022/01/24 12:12:43;;;;;;;26.52;23.80;;;6.10;94.90;;;;;;5071162;28;20049;-80
2022/01/24 12:15:30;;;;;;;28.13;25.20;;;6.10;95.10;;;;;;5073813;28;20492;-80
2022/01/24 12:17:57;;;;;;;28.60;25.58;;;6.10;95.20;;;;;;5073094;28;20059;-81
2022/01/24 12:20:33;;;;;;;28.08;25.17;;;6.10;95.20;;;;;;5072908;28;20046;-82
2022/01/24 12:23:19;;;;;;;29.02;25.52;;;6.10;95.00;;;;;;5073776;28;20091;-83
2022/01/24 12:25:50;;;;;;;28.45;25.55;;;6.00;95.20;;;;;;5072658;28;20045;-81
2022/01/24 12:28:16;;;;;;;29.42;25.33;;;6.10;95.20;;;;;;5056944;28;20510;-77
2022/01/24 12:31:02;;;;;;;28.80;25.85;;;6.00;95.30;;;;;;5056679;28;20041;-79
2022/01/24 12:33:39;;;;;;;29.60;26.45;;;6.10;95.20;;;;;;5053960;28;20040;-80
2022/01/24 12:36:12;;;;;;;25.88;23.27;;;6.00;95.20;;;;;;5047501;28;20397;-83
2022/01/24 12:38:44;;;;;;;26.88;24.08;;;6.00;95.00;;;;;;5071910;28;20789;-87
2022/01/24 12:41:30;;;;;;;26.52;23.73;;;6.10;95.10;;;;;;5069456;28;20045;-82
2022/01/24 12:46:18;;;;;;;26.77;22.80;;;6.00;94.90;;;;;;5073177;28;20064;-82
2022/01/24 12:46:44;;;;;;;25.60;23.02;;;6.00;95.10;;;;;;5069857;28;20040;-83
2022/01/24 12:49:10;;;;;;;24.60;21.88;;;6.00;94.80;;;;;;5062657;28;20067;-83
2022/01/24 12:51:38;;;;;;;24.13;21.83;;;6.00;94.70;;;;;;5051752;28;20056;-79
2022/01/24 12:54:06;;;;;;;25.58;23.00;;;6.00;94.60;;;;;;5053172;28;20049;-80
2022/01/24 12:56:34;;;;;;;26.10;23.30;;;6.00;94.60;;;;;;5052937;28;20101;-80
2022/01/24 12:59:00;;;;;;;26.20;23.50;;;6.00;94.50;;;;;;5050910;28;20041;-72
2022/01/24 13:01:35;;;;;;;25.42;22.77;;;6.00;94.70;;;;;;5053036;28;20052;-79
2022/01/24 13:04:04;;;;;;;25.05;22.55;;;6.00;94.70;;;;;;5049484;28;20052;-73
2022/01/24 13:06:32;;;;;;;27.40;24.63;;;6.00;94.70;;;;;;5048616;28;20587;-78
2022/01/24 13:08:58;;;;;;;25.60;23.08;;;5.90;94.50;;;;;;5050373;28;20124;-75
2022/01/24 13:11:25;;;;;;;24.25;21.80;;;5.90;94.50;;;;;;5052441;28;20136;-79
2022/01/24 13:14:14;;;;;;;22.65;20.35;;;5.90;94.80;;;;;;5049325;28;20052;-80
2022/01/24 13:22:24;;;;;;;24.42;21.92;;;6.00;94.80;;;;;;5049280;28;20131;-80
2022/01/24 13:25:03;;;;;;;24.40;22.00;;;6.00;94.80;;;;;;5050806;28;20032;-80
2022/01/24 13:27:48;;;;;;;26.02;23.13;;;6.00;94.80;;;;;;5033053;28;20047;-80
2022/01/24 13:30:26;;;;;;;23.02;20.75;;;6.00;94.40;;;;;;5048587;28;20041;-81
2022/01/24 13:32:55;;;;;;;23.70;21.20;;;6.00;94.30;;;;;;5032609;28;20057;-80
2022/01/24 13:35:35;;;;;;;26.88;23.88;;;6.00;94.30;;;;;;5033399;28;20045;-81
2022/01/24 13:38:06;;;;;;;27.58;24.75;;;6.00;94.20;;;;;;5049998;28;20406;-80
2022/01/24 13:40:54;;;;;;;28.30;25.40;;;5.90;94.10;;;;;;5051560;28;20041;-80
2022/01/24 13:43:58;;;;;;;27.67;23.73;;;5.90;94.30;;;;;;5052736;28;20048;-80
2022/01/24 13:46:30;;;;;;;26.48;23.52;;;5.90;93.60;;;;;;5056550;28;20045;-72
2022/01/24 13:48:56;;;;;;;;;;;5.90;93.60;;;;;;5066071;28;20335;-82
2022/01/24 13:51:42;;;;;;;28.38;25.40;;;5.80;93.70;;;;;;5069089;28;19946;-76
2022/01/24 13:54:13;;;;;;;29.20;24.73;;;5.80;94.20;;;;;;5051517;28;20563;-78
2022/01/24 13:56:48;;;;;;;28.65;25.65;;;5.90;94.30;;;;;;5068578;28;20489;-80
2022/01/24 13:59:26;;;;;;;28.77;25.77;;;5.90;94.30;;;;;;5068830;28;20631;-79
2022/01/24 14:02:01;;;;;;;29.27;26.35;;;5.90;94.40;;;;;;5070304;28;20052;-79
2022/01/24 14:04:40;;;;;;;26.77;24.00;;;6.00;94.30;;;;;;5068645;28;20136;-79
2022/01/24 14:07:13;;;;;;;27.13;24.25;;;5.90;94.40;;;;;;5067583;28;20041;-79
2022/01/24 14:09:49;;;;;;;30.13;25.48;;;5.90;94.40;;;;;;5060316;28;20032;-79
2022/01/24 14:12:54;;;;;;;28.05;25.15;;;5.90;94.40;;;;;;5080594;28;20040;-79
2022/01/24 14:15:44;;;;;;;28.35;25.33;;;6.00;94.50;;;;;;5077036;28;20047;-80
2022/01/24 14:20:45;;;;;;;30.35;24.83;;;5.90;94.10;;;;;;5071515;28;20049;-80
2022/01/24 14:23:22;;;;;;;28.73;25.02;;;5.90;94.00;;;;;;5069881;28;20094;-79
2022/01/24 14:25:47;;;;;;;28.25;24.83;;;5.90;94.00;;;;;;5069501;28;20048;-78
2022/01/24 14:28:13;;;;;;;30.35;25.83;;;5.90;94.10;;;;;;5053701;28;20039;-80
2022/01/24 14:30:44;;;;;;;28.10;25.13;;;5.90;93.90;;;;;;5069573;28;20044;-80
2022/01/24 14:33:15;;;;;;;29.95;25.17;;;5.90;93.70;;;;;;5058704;28;20476;-80
2022/01/24 14:35:56;;;;;;;28.45;25.45;;;5.90;93.40;;;;;;5051494;28;20048;-79
2022/01/24 14:38:38;;;;;;;31.65;27.08;;;5.80;93.70;;;;;;5070742;28;20041;-80
2022/01/24 14:41:39;;;;;;;30.40;25.25;;;5.80;93.80;;;;;;5050899;28;20109;-77
2022/01/24 14:46:54;;;;;;;27.92;24.73;;;5.80;93.60;;;;;;5069354;28;20044;-80
2022/01/24 14:49:25;;;;;;;29.63;25.52;;;5.70;93.70;;;;;;5070692;28;20148;-79
2022/01/24 14:51:58;;;;;;;31.25;26.83;;;5.70;93.90;;;;;;5070175;28;20056;-79
2022/01/24 14:54:26;;;;;;;32.78;27.85;;;5.70;93.90;;;;;;5070080;28;20074;-79
2022/01/24 14:56:54;;;;;;;32.05;28.08;;;5.70;93.90;;;;;;5068822;28;20044;-79
2022/01/24 14:59:22;;;;;;;33.42;27.77;;;5.70;94.10;;;;;;5052241;28;20089;-80
2022/01/24 15:01:49;;;;;;;30.30;26.25;;;5.80;94.30;;;;;;5060216;28;20049;-78
2022/01/24 15:04:15;;;;;;;34.08;27.98;;;5.70;94.20;;;;;;5050578;28;20109;-79
2022/01/24 15:06:41;;;;;;;33.35;28.25;;;5.70;93.90;;;;;;5050447;28;20123;-80
2022/01/24 15:09:13;;;;;;;35.17;28.27;;;5.70;93.80;;;;;;5067179;28;20036;-79
2022/01/24 15:11:40;;;;;;;31.08;27.70;;;5.60;93.80;;;;;;5069245;28;20174;-79
2022/01/24 15:14:29;;;;;;;30.60;26.63;;;5.60;93.90;;;;;;5064513;28;20394;-77
2022/01/24 15:17:06;;;;;;;34.55;28.30;;;5.60;94.00;;;;;;5069621;28;20527;-78
2022/01/24 15:27:46;;;;;;;33.28;28.33;;;5.50;94.00;;;;;;5068331;28;20485;-81
2022/01/24 15:30:14;;;;;;;31.50;28.10;;;5.50;94.00;;;;;;5068731;28;20127;-78
2022/01/24 15:32:40;;;;;;;33.40;29.77;;;5.50;94.10;;;;;;5070023;28;20524;-78
2022/01/24 15:35:06;;;;;;;35.10;30.90;;;5.50;94.30;;;;;;5083132;28;20084;-78
2022/01/24 15:37:32;;;;;;;32.75;27.88;;;5.50;94.50;;;;;;5059567;28;20040;-79
2022/01/24 15:39:57;;;;;;;34.95;29.67;;;5.50;94.50;;;;;;5069869;28;20045;-78